Time;durP1;ratioP1;P1;durP2;ratioP2;P2;SDS_P1;SDS_P2;PMS_P1;PMS_P2;Temp;Humidity;BMP_temperature;BMP_pressure;BME280_temperature;BME280_humidity;BME280_pressure;Samples;Min_cycle;Max_cycle;Signal;HPM_P1;HPM_P2
2023/12/29 00:00:43;;;;;;;1.90;1.80;;;8.10;67.30;;;;;;4992355;28;20512;-71
2023/12/29 00:03:09;;;;;;;3.53;1.98;;;8.10;67.20;;;;;;4992791;28;20100;-70
2023/12/29 00:05:36;;;;;;;2.10;1.92;;;8.10;67.50;;;;;;5022593;28;20034;-70
2023/12/29 00:08:02;;;;;;;1.90;1.80;;;8.10;67.50;;;;;;4991524;28;20093;-70
2023/12/29 00:10:28;;;;;;;2.50;1.98;;;8.00;68.10;;;;;;4995358;28;20038;-70
2023/12/29 00:12:54;;;;;;;2.05;1.92;;;8.00;67.10;;;;;;4994244;28;20129;-70
2023/12/29 00:15:20;;;;;;;2.15;1.98;;;8.00;66.70;;;;;;4995121;28;20054;-71
2023/12/29 00:17:46;;;;;;;1.70;1.60;;;8.00;67.40;;;;;;4995560;28;20042;-71
2023/12/29 00:20:13;;;;;;;1.70;1.60;;;8.00;67.00;;;;;;4994885;28;20805;-71
2023/12/29 00:22:39;;;;;;;2.50;1.80;;;8.00;67.70;;;;;;4994362;28;20041;-71
2023/12/29 00:25:05;;;;;;;2.00;1.80;;;8.00;68.40;;;;;;4996092;28;20039;-72
2023/12/29 00:27:31;;;;;;;2.63;1.80;;;8.00;67.10;;;;;;4993476;28;20030;-71
2023/12/29 00:29:57;;;;;;;1.88;1.60;;;8.00;66.70;;;;;;5026377;28;20133;-70
2023/12/29 00:32:23;;;;;;;2.10;1.90;;;8.00;67.40;;;;;;5009450;28;20117;-70
2023/12/29 00:34:50;;;;;;;2.67;2.10;;;8.00;67.00;;;;;;5005514;28;20386;-71
2023/12/29 00:37:16;;;;;;;3.20;1.80;;;8.00;67.40;;;;;;5009500;28;20042;-71
2023/12/29 00:39:42;;;;;;;2.70;1.63;;;7.90;66.90;;;;;;4994970;28;20031;-70
2023/12/29 00:42:09;;;;;;;2.85;1.80;;;7.90;67.80;;;;;;4995276;28;20074;-71
2023/12/29 00:44:35;;;;;;;2.00;1.65;;;7.90;66.90;;;;;;5009786;28;20098;-70
2023/12/29 00:47:01;;;;;;;3.25;1.90;;;7.90;66.90;;;;;;4994447;28;20046;-71
2023/12/29 00:49:27;;;;;;;3.35;2.08;;;7.90;67.60;;;;;;5009108;28;20041;-71
2023/12/29 00:51:53;;;;;;;4.43;2.22;;;7.90;67.10;;;;;;4993435;28;20042;-72
2023/12/29 00:54:19;;;;;;;4.30;2.42;;;7.90;67.60;;;;;;4996049;28;20030;-72
2023/12/29 00:56:49;;;;;;;4.90;2.58;;;7.90;67.10;;;;;;5026097;28;21081;-71
2023/12/29 00:59:15;;;;;;;4.82;3.00;;;7.90;66.90;;;;;;4994317;28;20122;-71
2023/12/29 01:01:42;;;;;;;4.45;2.80;;;7.90;67.30;;;;;;5008676;28;20093;-73
2023/12/29 01:04:08;;;;;;;4.97;2.80;;;7.90;67.80;;;;;;5009277;28;20366;-72
2023/12/29 01:06:34;;;;;;;6.22;3.40;;;7.80;67.10;;;;;;4994178;28;20041;-73
2023/12/29 01:09:00;;;;;;;4.97;2.90;;;7.90;67.70;;;;;;4992774;28;20039;-73
2023/12/29 01:11:26;;;;;;;6.15;2.70;;;7.80;66.80;;;;;;4994887;28;20563;-72
2023/12/29 01:13:52;;;;;;;3.38;2.30;;;7.80;67.00;;;;;;4994763;28;20042;-72
2023/12/29 01:16:18;;;;;;;2.97;2.28;;;7.80;67.20;;;;;;5025493;28;20088;-72
2023/12/29 01:18:44;;;;;;;4.60;2.30;;;7.80;67.20;;;;;;5025195;28;20121;-72
2023/12/29 01:21:10;;;;;;;2.83;1.95;;;7.80;67.60;;;;;;5009024;28;20544;-72
2023/12/29 01:23:36;;;;;;;3.72;2.05;;;7.80;66.80;;;;;;4993303;28;20030;-70
2023/12/29 01:26:02;;;;;;;2.47;2.00;;;7.80;67.70;;;;;;4994043;28;20096;-71
2023/12/29 01:28:28;;;;;;;2.80;1.80;;;7.80;67.70;;;;;;5025078;28;20030;-72
2023/12/29 01:30:54;;;;;;;2.28;1.80;;;7.70;67.10;;;;;;5008320;28;20062;-72
2023/12/29 01:33:21;;;;;;;2.75;1.92;;;7.70;67.10;;;;;;4994137;28;20042;-71
2023/12/29 01:35:47;;;;;;;2.67;1.92;;;7.70;67.00;;;;;;4993982;28;20061;-73
2023/12/29 01:38:13;;;;;;;1.50;1.40;;;7.70;66.60;;;;;;4990534;28;20129;-72
2023/12/29 01:40:46;;;;;;;2.63;1.73;;;7.70;67.70;;;;;;5024495;28;20496;-72
2023/12/29 01:43:13;;;;;;;3.25;1.77;;;7.70;66.80;;;;;;4993459;28;20082;-72
2023/12/29 01:45:39;;;;;;;1.67;1.58;;;7.70;67.20;;;;;;4988530;28;20050;-72
2023/12/29 01:48:06;;;;;;;1.60;1.42;;;7.70;67.00;;;;;;5025354;28;20049;-72
2023/12/29 01:50:32;;;;;;;2.50;1.77;;;7.70;67.50;;;;;;5008214;28;20038;-72
2023/12/29 01:52:59;;;;;;;2.75;1.65;;;7.70;67.40;;;;;;4994384;28;20049;-72
2023/12/29 01:55:26;;;;;;;1.98;1.63;;;7.70;67.50;;;;;;4993263;28;20034;-71
2023/12/29 01:57:54;;;;;;;2.88;1.40;;;7.70;67.60;;;;;;5025360;28;20030;-71
2023/12/29 02:00:21;;;;;;;3.00;1.40;;;7.70;67.60;;;;;;4992631;28;20030;-71
2023/12/29 02:02:49;;;;;;;1.52;1.42;;;7.70;66.50;;;;;;5006888;28;20498;-72
2023/12/29 02:05:17;;;;;;;1.60;1.50;;;7.70;67.00;;;;;;5025538;28;20034;-72
2023/12/29 02:07:43;;;;;;;1.70;1.35;;;7.60;67.50;;;;;;5025116;28;20030;-71
2023/12/29 02:10:13;;;;;;;3.25;1.50;;;7.60;67.10;;;;;;5008183;28;20042;-72
2023/12/29 02:12:40;;;;;;;1.75;1.55;;;7.60;66.80;;;;;;5024032;28;20126;-72
2023/12/29 02:15:07;;;;;;;2.70;1.77;;;7.60;66.90;;;;;;5023487;28;20088;-73
2023/12/29 02:17:41;;;;;;;1.80;1.70;;;7.60;66.80;;;;;;4992470;28;20031;-72
2023/12/29 02:20:09;;;;;;;1.98;1.48;;;7.60;67.40;;;;;;5007553;28;20417;-72
2023/12/29 02:22:35;;;;;;;2.38;1.70;;;7.60;66.40;;;;;;5022948;28;20421;-72
2023/12/29 02:25:01;;;;;;;1.77;1.55;;;7.60;67.30;;;;;;5006925;28;20038;-72
2023/12/29 02:27:37;;;;;;;1.65;1.55;;;7.60;67.20;;;;;;5007697;28;20073;-72
2023/12/29 02:30:23;;;;;;;1.70;1.60;;;7.60;67.20;;;;;;4991906;28;20056;-71
2023/12/29 02:32:54;;;;;;;1.58;1.45;;;7.60;67.60;;;;;;4992462;28;20039;-71
2023/12/29 02:35:27;;;;;;;1.77;1.63;;;7.60;66.90;;;;;;4991740;28;20030;-71
2023/12/29 02:37:54;;;;;;;1.58;1.48;;;7.60;67.40;;;;;;5024883;28;20092;-70
2023/12/29 02:40:21;;;;;;;1.65;1.42;;;7.60;67.40;;;;;;5007122;28;20117;-71
2023/12/29 02:42:49;;;;;;;1.50;1.40;;;7.60;67.70;;;;;;5024935;28;20052;-71
2023/12/29 02:45:16;;;;;;;2.38;2.08;;;7.50;67.30;;;;;;5023263;28;20383;-71
2023/12/29 02:47:43;;;;;;;2.08;1.80;;;7.60;68.30;;;;;;4992500;28;20081;-71
2023/12/29 02:50:10;;;;;;;1.52;1.40;;;7.50;67.40;;;;;;5022029;28;20085;-71
2023/12/29 02:52:37;;;;;;;2.95;1.60;;;7.50;67.50;;;;;;4984056;28;20034;-71
2023/12/29 02:55:03;;;;;;;1.85;1.70;;;7.50;67.00;;;;;;5021418;28;20030;-70
2023/12/29 02:57:29;;;;;;;1.70;1.60;;;7.60;67.40;;;;;;4990316;28;20042;-71
2023/12/29 02:59:56;;;;;;;2.00;1.50;;;7.50;66.80;;;;;;5023828;28;20101;-71
2023/12/29 03:02:23;;;;;;;2.10;1.90;;;7.50;67.30;;;;;;5021416;28;20040;-71
2023/12/29 03:04:49;;;;;;;2.38;1.90;;;7.50;66.70;;;;;;4989312;28;20604;-71
2023/12/29 03:07:16;;;;;;;1.92;1.73;;;7.50;67.30;;;;;;5007268;28;20040;-71
2023/12/29 03:09:42;;;;;;;3.88;2.13;;;7.50;67.40;;;;;;5022137;28;20034;-71
2023/12/29 03:12:08;;;;;;;2.33;2.13;;;7.50;66.60;;;;;;4983778;28;20087;-71
2023/12/29 03:14:34;;;;;;;2.20;1.98;;;7.50;67.30;;;;;;4990180;28;20027;-71
2023/12/29 03:17:01;;;;;;;2.53;1.80;;;7.50;67.00;;;;;;4991963;28;20053;-72
2023/12/29 03:19:27;;;;;;;3.10;2.05;;;7.50;67.10;;;;;;4990536;28;20057;-72
2023/12/29 03:21:54;;;;;;;2.33;1.80;;;7.50;67.20;;;;;;5006553;28;20146;-72
2023/12/29 03:24:20;;;;;;;2.15;1.90;;;7.50;68.20;;;;;;5005417;28;20480;-71
2023/12/29 03:26:48;;;;;;;2.58;1.80;;;7.50;67.80;;;;;;5021612;28;20038;-71
2023/12/29 03:29:14;;;;;;;3.75;1.98;;;7.50;67.10;;;;;;4991865;28;20029;-71
2023/12/29 03:31:40;;;;;;;2.08;1.85;;;7.50;67.50;;;;;;4990241;28;20469;-72
2023/12/29 03:34:06;;;;;;;3.28;1.80;;;7.50;67.60;;;;;;5006621;28;20057;-74
2023/12/29 03:36:32;;;;;;;4.13;1.77;;;7.50;66.70;;;;;;4990222;28;20042;-74
2023/12/29 03:38:58;;;;;;;1.73;1.63;;;7.50;67.40;;;;;;5006358;28;20485;-74
2023/12/29 03:41:24;;;;;;;2.55;1.92;;;7.50;67.50;;;;;;4991553;28;20038;-74
2023/12/29 03:43:50;;;;;;;1.70;1.58;;;7.50;68.20;;;;;;5004756;28;20030;-73
2023/12/29 03:46:21;;;;;;;2.50;1.80;;;7.50;68.40;;;;;;5004506;28;20053;-74
2023/12/29 03:48:47;;;;;;;1.60;1.50;;;7.50;68.30;;;;;;5005476;28;20034;-74
2023/12/29 03:51:14;;;;;;;3.10;1.77;;;7.60;68.40;;;;;;4991677;28;20038;-72
2023/12/29 03:53:40;;;;;;;2.25;1.60;;;7.60;69.00;;;;;;5022597;28;20586;-71
2023/12/29 03:56:16;;;;;;;2.75;1.60;;;7.60;68.70;;;;;;5005315;28;20540;-72
2023/12/29 03:58:42;;;;;;;2.05;1.85;;;7.60;68.80;;;;;;5021912;28;20041;-72
2023/12/29 04:01:16;;;;;;;1.55;1.45;;;7.60;68.90;;;;;;5007308;28;20092;-72
2023/12/29 04:03:42;;;;;;;1.60;1.50;;;7.60;68.80;;;;;;4989254;28;20486;-72
2023/12/29 04:06:09;;;;;;;1.95;1.75;;;7.60;69.10;;;;;;4991843;28;20568;-72
2023/12/29 04:08:36;;;;;;;1.73;1.63;;;7.70;69.10;;;;;;4984769;28;20077;-73
2023/12/29 04:11:03;;;;;;;2.33;1.88;;;7.70;69.00;;;;;;5022678;28;20038;-73
2023/12/29 04:13:29;;;;;;;2.33;1.80;;;7.70;68.90;;;;;;5023103;28;20030;-73
2023/12/29 04:15:55;;;;;;;3.00;1.88;;;7.70;68.90;;;;;;5021608;28;20034;-73
2023/12/29 04:18:22;;;;;;;2.92;2.00;;;7.70;69.00;;;;;;4992669;28;20045;-72
2023/12/29 04:20:48;;;;;;;2.15;1.92;;;7.70;68.60;;;;;;4990539;28;20030;-75
2023/12/29 04:23:15;;;;;;;2.33;1.70;;;7.70;68.60;;;;;;4990595;28;20045;-73
2023/12/29 04:25:41;;;;;;;2.78;1.85;;;7.70;68.70;;;;;;5022546;28;20084;-72
2023/12/29 04:28:08;;;;;;;2.95;2.00;;;7.70;68.90;;;;;;5005131;28;20038;-73
2023/12/29 04:30:34;;;;;;;2.63;2.10;;;7.70;68.70;;;;;;5005541;28;20455;-72
2023/12/29 04:33:01;;;;;;;2.40;2.00;;;7.70;68.50;;;;;;5022172;28;20121;-73
2023/12/29 04:35:27;;;;;;;2.53;2.03;;;7.70;68.50;;;;;;5018726;28;20041;-73
2023/12/29 04:37:53;;;;;;;3.03;1.92;;;7.70;68.70;;;;;;4987090;28;20034;-73
2023/12/29 04:40:19;;;;;;;4.60;1.80;;;7.70;68.50;;;;;;4989710;28;20026;-73
2023/12/29 04:42:45;;;;;;;2.70;1.92;;;7.70;68.40;;;;;;5004787;28;20417;-73
2023/12/29 04:45:12;;;;;;;2.92;1.85;;;7.70;68.70;;;;;;5005777;28;20518;-74
2023/12/29 04:47:38;;;;;;;2.40;2.00;;;7.70;68.80;;;;;;4989440;28;20045;-73
2023/12/29 04:50:08;;;;;;;4.15;2.03;;;7.70;68.70;;;;;;4989633;28;20076;-73
2023/12/29 04:52:34;;;;;;;3.35;2.28;;;7.80;68.60;;;;;;5020783;28;20065;-73
2023/12/29 04:55:00;;;;;;;2.47;1.75;;;7.70;68.50;;;;;;4990189;28;20126;-74
2023/12/29 04:57:26;;;;;;;1.98;1.70;;;7.80;68.70;;;;;;4994000;28;20445;-73
2023/12/29 04:59:52;;;;;;;1.90;1.70;;;7.80;68.90;;;;;;4992691;28;20023;-73
2023/12/29 05:02:19;;;;;;;4.47;2.15;;;7.80;68.70;;;;;;5025906;28;20049;-73
2023/12/29 05:04:46;;;;;;;3.25;1.88;;;7.80;68.50;;;;;;4993984;28;20034;-73
2023/12/29 05:07:12;;;;;;;2.10;1.90;;;7.80;68.50;;;;;;5023975;28;20034;-73
2023/12/29 05:09:38;;;;;;;3.60;2.08;;;7.80;68.60;;;;;;4992800;28;20129;-72
2023/12/29 05:12:04;;;;;;;3.65;2.17;;;7.80;68.50;;;;;;4993043;28;20036;-72
2023/12/29 05:14:30;;;;;;;4.40;2.13;;;7.80;68.40;;;;;;4991950;28;20042;-73
2023/12/29 05:16:56;;;;;;;4.85;3.30;;;7.80;68.60;;;;;;4993613;28;20405;-73
2023/12/29 05:19:22;;;;;;;4.22;3.65;;;7.80;68.50;;;;;;4992695;28;20042;-74
2023/12/29 05:21:51;;;;;;;4.78;3.50;;;7.80;68.60;;;;;;4988896;28;20038;-74
2023/12/29 05:24:17;;;;;;;6.25;3.50;;;7.80;68.60;;;;;;4993605;28;20501;-73
2023/12/29 05:26:43;;;;;;;5.72;3.10;;;7.80;68.70;;;;;;4992305;28;20029;-74
2023/12/29 05:29:09;;;;;;;5.20;2.90;;;7.80;68.70;;;;;;4994456;28;20046;-74
2023/12/29 05:31:35;;;;;;;4.07;2.60;;;7.80;68.50;;;;;;4992796;28;20418;-72
2023/12/29 05:34:01;;;;;;;4.93;2.88;;;7.80;68.40;;;;;;4991265;28;20042;-72
2023/12/29 05:36:27;;;;;;;3.95;2.80;;;7.90;68.60;;;;;;4992754;28;20052;-72
2023/12/29 05:38:54;;;;;;;4.47;2.80;;;7.80;68.50;;;;;;4992581;28;20397;-72
2023/12/29 05:41:20;;;;;;;4.05;2.88;;;7.90;68.40;;;;;;5026010;28;20045;-74
2023/12/29 05:43:46;;;;;;;6.55;3.00;;;7.90;68.60;;;;;;4994438;28;20120;-75
2023/12/29 05:46:12;;;;;;;5.82;2.90;;;7.90;68.30;;;;;;4994586;28;20129;-75
2023/12/29 05:48:39;;;;;;;4.00;2.92;;;7.80;68.30;;;;;;4992736;28;20101;-74
2023/12/29 05:51:09;;;;;;;5.78;2.88;;;7.90;68.30;;;;;;4993716;28;20030;-74
2023/12/29 05:53:36;;;;;;;7.55;3.70;;;7.90;68.30;;;;;;4992475;28;20093;-74
2023/12/29 05:56:02;;;;;;;5.70;2.80;;;7.90;68.50;;;;;;4994396;28;20402;-75
2023/12/29 05:58:28;;;;;;;4.72;3.05;;;7.90;68.50;;;;;;4993258;28;20045;-75
2023/12/29 06:00:58;;;;;;;4.25;2.75;;;7.90;68.40;;;;;;4993131;28;20034;-72
2023/12/29 06:03:25;;;;;;;4.60;3.03;;;7.90;68.40;;;;;;4993422;28;20149;-73
2023/12/29 06:05:51;;;;;;;4.25;2.90;;;7.90;68.40;;;;;;5006890;28;20571;-74
2023/12/29 06:08:17;;;;;;;6.07;3.22;;;7.90;68.40;;;;;;4992751;28;20030;-75
2023/12/29 06:10:43;;;;;;;5.35;3.03;;;7.90;68.50;;;;;;4991378;28;20065;-74
2023/12/29 06:13:09;;;;;;;3.78;3.00;;;7.90;68.60;;;;;;4993221;28;20046;-75
2023/12/29 06:15:36;;;;;;;4.65;3.20;;;7.90;68.80;;;;;;4991611;28;20034;-74
2023/12/29 06:18:02;;;;;;;3.25;2.60;;;7.90;68.80;;;;;;4992401;28;20121;-75
2023/12/29 06:20:28;;;;;;;4.50;2.92;;;7.90;68.80;;;;;;4992386;28;20058;-74
2023/12/29 06:22:55;;;;;;;5.50;3.17;;;7.90;68.80;;;;;;4992771;28;20034;-74
2023/12/29 06:25:22;;;;;;;4.15;3.00;;;7.90;68.90;;;;;;5024226;28;20031;-76
2023/12/29 06:27:48;;;;;;;6.95;3.05;;;7.90;68.80;;;;;;5006340;28;20041;-75
2023/12/29 06:30:15;;;;;;;4.88;3.10;;;7.90;68.90;;;;;;4991593;28;20042;-74
2023/12/29 06:32:41;;;;;;;4.88;3.30;;;7.90;68.90;;;;;;4992947;28;20494;-74
2023/12/29 06:35:09;;;;;;;3.75;2.92;;;8.00;69.20;;;;;;4989244;28;20074;-74
2023/12/29 06:37:39;;;;;;;7.82;3.15;;;7.90;69.20;;;;;;4990951;28;20255;-74
2023/12/29 06:40:06;;;;;;;4.13;2.92;;;7.90;69.70;;;;;;4989929;28;20425;-74
2023/12/29 06:42:32;;;;;;;5.75;3.20;;;7.90;69.70;;;;;;5005489;28;20587;-74
2023/12/29 06:44:59;;;;;;;3.42;3.10;;;7.90;69.80;;;;;;5022283;28;20034;-74
2023/12/29 06:47:25;;;;;;;2.90;2.58;;;7.90;69.80;;;;;;4992439;28;20100;-74
2023/12/29 06:49:51;;;;;;;4.35;3.00;;;7.90;69.70;;;;;;4984796;28;20457;-74
2023/12/29 06:52:17;;;;;;;4.05;2.90;;;8.00;69.80;;;;;;5022189;28;20062;-74
2023/12/29 06:54:43;;;;;;;7.32;3.10;;;8.00;69.70;;;;;;4991562;28;20036;-74
2023/12/29 06:57:09;;;;;;;4.45;2.83;;;8.00;69.90;;;;;;4989642;28;20041;-74
2023/12/29 06:59:35;;;;;;;5.00;3.05;;;8.00;69.70;;;;;;5022319;28;20033;-73
2023/12/29 07:02:01;;;;;;;3.83;2.70;;;8.00;69.80;;;;;;4991596;28;20030;-74
2023/12/29 07:04:27;;;;;;;6.28;3.38;;;8.00;69.80;;;;;;5006571;28;20042;-74
2023/12/29 07:06:53;;;;;;;5.03;2.88;;;8.00;69.90;;;;;;4991496;28;20030;-75
2023/12/29 07:09:19;;;;;;;8.27;3.05;;;8.00;69.90;;;;;;5022135;28;20038;-74
2023/12/29 07:11:49;;;;;;;6.95;3.53;;;8.00;70.00;;;;;;4990710;28;20374;-73
2023/12/29 07:14:17;;;;;;;4.28;2.78;;;8.00;69.90;;;;;;4992226;28;20041;-73
2023/12/29 07:16:43;;;;;;;5.38;2.90;;;8.00;70.10;;;;;;4990597;28;20115;-73
2023/12/29 07:19:09;;;;;;;4.40;2.72;;;8.00;70.10;;;;;;4990427;28;20101;-73
2023/12/29 07:21:36;;;;;;;5.30;3.25;;;8.00;70.20;;;;;;4990363;28;20447;-73
2023/12/29 07:24:02;;;;;;;4.97;2.92;;;8.00;70.40;;;;;;5001837;28;20109;-73
2023/12/29 07:26:28;;;;;;;4.32;2.95;;;8.00;70.60;;;;;;4990307;28;20038;-74
2023/12/29 07:28:54;;;;;;;4.97;3.13;;;8.00;70.70;;;;;;4985424;28;20562;-73
2023/12/29 07:31:23;;;;;;;4.93;2.60;;;8.00;70.80;;;;;;5021426;28;20521;-74
2023/12/29 07:33:49;;;;;;;5.65;3.10;;;8.00;70.70;;;;;;5005080;28;20604;-74
2023/12/29 07:36:15;;;;;;;4.13;2.90;;;8.00;70.80;;;;;;4986095;28;20038;-74
2023/12/29 07:38:42;;;;;;;5.78;3.03;;;8.00;71.20;;;;;;4988358;28;20069;-74
2023/12/29 07:41:09;;;;;;;4.75;3.28;;;8.10;72.00;;;;;;4986646;28;20105;-77
2023/12/29 07:43:38;;;;;;;32.42;4.55;;;8.10;72.70;;;;;;5000595;28;20559;-73
2023/12/29 07:46:04;;;;;;;15.45;3.20;;;8.20;76.30;;;;;;4988491;28;20129;-75
2023/12/29 07:48:30;;;;;;;10.35;3.05;;;8.30;77.00;;;;;;5003592;28;20061;-74
2023/12/29 07:51:04;;;;;;;8.13;3.40;;;8.20;75.50;;;;;;5020340;28;20046;-81
2023/12/29 07:53:30;;;;;;;6.72;2.88;;;8.30;74.70;;;;;;5018937;28;20485;-76
2023/12/29 07:55:56;;;;;;;4.20;3.08;;;8.20;73.90;;;;;;5018537;28;20037;-78
2023/12/29 07:58:22;;;;;;;4.55;3.13;;;8.20;73.50;;;;;;4990366;28;20129;-77
2023/12/29 08:00:48;;;;;;;5.28;3.50;;;8.20;73.30;;;;;;4987193;28;20064;-77
2023/12/29 08:03:14;;;;;;;8.32;3.35;;;8.20;73.40;;;;;;4989292;28;20927;-76
2023/12/29 08:05:40;;;;;;;3.97;2.80;;;8.30;73.30;;;;;;4987596;28;20042;-77
2023/12/29 08:08:06;;;;;;;7.38;3.50;;;8.20;73.00;;;;;;4989401;28;20045;-76
2023/12/29 08:10:32;;;;;;;6.75;3.47;;;8.30;72.80;;;;;;4989950;28;20089;-75
2023/12/29 08:12:58;;;;;;;3.63;3.00;;;8.30;72.60;;;;;;4985495;28;20133;-75
2023/12/29 08:15:24;;;;;;;7.15;3.20;;;8.30;72.50;;;;;;4984361;28;20530;-75
2023/12/29 08:17:50;;;;;;;4.95;3.28;;;8.30;72.30;;;;;;4989147;28;20034;-75
2023/12/29 08:20:16;;;;;;;7.78;3.40;;;8.30;72.20;;;;;;4989946;28;20046;-76
2023/12/29 08:22:42;;;;;;;4.85;3.70;;;8.20;72.40;;;;;;4987826;28;20030;-78
2023/12/29 08:25:09;;;;;;;5.75;3.20;;;8.30;72.40;;;;;;5004585;28;20141;-78
2023/12/29 08:27:35;;;;;;;5.70;3.13;;;8.30;72.50;;;;;;4987361;28;20521;-78
2023/12/29 08:30:01;;;;;;;4.65;3.65;;;8.30;72.60;;;;;;5019018;28;20458;-76
2023/12/29 08:32:27;;;;;;;5.85;3.05;;;8.30;72.80;;;;;;5007171;28;20042;-77
2023/12/29 08:34:53;;;;;;;6.85;3.13;;;8.30;73.10;;;;;;4989075;28;20610;-77
2023/12/29 08:37:19;;;;;;;4.22;3.08;;;8.30;73.30;;;;;;5022535;28;20042;-78
2023/12/29 08:39:49;;;;;;;8.30;3.42;;;8.30;73.50;;;;;;4994545;28;20042;-79
2023/12/29 08:42:15;;;;;;;5.55;3.20;;;8.30;73.60;;;;;;4991138;28;20046;-77
2023/12/29 08:44:42;;;;;;;7.28;3.08;;;8.30;73.70;;;;;;4993013;28;20044;-76
2023/12/29 08:47:08;;;;;;;6.38;3.30;;;8.30;73.70;;;;;;4995165;28;20064;-77
2023/12/29 08:49:36;;;;;;;5.30;3.08;;;8.30;73.70;;;;;;4991429;28;20049;-78
2023/12/29 08:52:02;;;;;;;5.15;3.25;;;8.30;73.80;;;;;;4991335;28;20039;-76
2023/12/29 08:54:28;;;;;;;5.57;3.20;;;8.40;73.80;;;;;;4989472;28;20810;-78
2023/12/29 08:56:54;;;;;;;6.75;3.28;;;8.40;73.90;;;;;;5006968;28;20045;-76
2023/12/29 08:59:20;;;;;;;7.30;3.42;;;8.40;73.90;;;;;;4993055;28;20526;-77
2023/12/29 09:01:46;;;;;;;5.85;3.50;;;8.40;73.90;;;;;;5021509;28;20509;-74
2023/12/29 09:04:12;;;;;;;4.88;3.60;;;8.40;74.00;;;;;;4990816;28;20129;-74
2023/12/29 09:06:39;;;;;;;5.07;2.97;;;8.40;74.10;;;;;;4989599;28;20131;-78
2023/12/29 09:09:05;;;;;;;6.30;3.13;;;8.40;74.00;;;;;;4990204;28;20037;-75
2023/12/29 09:11:31;;;;;;;3.83;3.13;;;8.40;74.00;;;;;;4990438;28;20108;-73
2023/12/29 09:13:57;;;;;;;5.45;3.28;;;8.40;74.20;;;;;;5025031;28;20034;-75
2023/12/29 09:16:23;;;;;;;6.25;3.28;;;8.40;74.70;;;;;;4983592;28;20034;-74
2023/12/29 09:18:49;;;;;;;7.28;3.50;;;8.40;74.10;;;;;;5023539;28;20458;-74
2023/12/29 09:21:15;;;;;;;5.82;3.15;;;8.40;74.10;;;;;;4992505;28;20121;-72
2023/12/29 09:23:41;;;;;;;5.57;3.30;;;8.40;73.90;;;;;;4991683;28;20077;-73
2023/12/29 09:26:07;;;;;;;7.72;3.80;;;8.40;73.90;;;;;;4991900;28;20141;-73
2023/12/29 09:28:36;;;;;;;6.38;3.88;;;8.50;73.80;;;;;;4991030;28;20058;-74
2023/12/29 09:31:02;;;;;;;4.43;3.00;;;8.40;73.70;;;;;;4990499;28;20034;-74
2023/12/29 09:33:29;;;;;;;5.57;3.45;;;8.40;73.60;;;;;;4991252;28;20630;-73
2023/12/29 09:35:54;;;;;;;4.80;3.42;;;8.50;73.50;;;;;;4989728;28;20038;-72
2023/12/29 09:38:21;;;;;;;6.25;3.83;;;8.40;73.20;;;;;;4989723;28;20477;-73
2023/12/29 09:40:49;;;;;;;5.57;3.80;;;8.50;73.20;;;;;;4987144;28;20042;-73
2023/12/29 09:43:15;;;;;;;5.25;3.60;;;8.40;73.00;;;;;;4989041;28;20112;-73
2023/12/29 09:45:44;;;;;;;6.70;4.05;;;8.40;72.90;;;;;;4989293;28;20042;-73
2023/12/29 09:48:13;;;;;;;8.52;4.13;;;8.50;72.90;;;;;;4992246;28;20599;-71
2023/12/29 09:50:39;;;;;;;3.95;3.05;;;8.50;72.90;;;;;;4988735;28;20044;-73
2023/12/29 09:53:06;;;;;;;6.55;3.47;;;8.50;72.90;;;;;;4991162;28;20058;-73
2023/12/29 09:55:33;;;;;;;6.40;3.58;;;8.50;72.80;;;;;;4988820;28;20034;-73
2023/12/29 09:58:00;;;;;;;6.65;4.00;;;8.50;72.80;;;;;;5022565;28;20062;-73
2023/12/29 10:00:27;;;;;;;6.78;4.00;;;8.50;72.70;;;;;;4989227;28;20172;-74
2023/12/29 10:02:54;;;;;;;5.80;4.00;;;8.50;72.70;;;;;;4990093;28;20056;-74
2023/12/29 10:05:20;;;;;;;5.85;3.90;;;8.50;72.50;;;;;;4987560;28;20945;-74
2023/12/29 10:07:48;;;;;;;7.60;4.60;;;8.50;72.40;;;;;;4991525;28;20401;-73
2023/12/29 10:10:16;;;;;;;6.28;4.13;;;8.50;72.40;;;;;;4989851;28;20035;-73
2023/12/29 10:12:47;;;;;;;6.80;4.25;;;8.50;72.30;;;;;;4990150;28;20042;-73
2023/12/29 10:15:18;;;;;;;5.60;3.90;;;8.50;72.20;;;;;;4989058;28;20042;-73
2023/12/29 10:18:02;;;;;;;6.70;4.05;;;8.50;72.20;;;;;;4990536;28;20129;-73
2023/12/29 10:20:37;;;;;;;5.53;4.18;;;8.50;72.20;;;;;;4989768;28;20387;-74
2023/12/29 10:23:16;;;;;;;5.50;4.00;;;8.50;72.20;;;;;;4991094;28;20054;-74
2023/12/29 10:25:43;;;;;;;6.35;4.05;;;8.50;72.20;;;;;;5020358;28;20605;-73
2023/12/29 10:28:13;;;;;;;5.55;4.18;;;8.50;72.00;;;;;;4991643;28;20041;-73
2023/12/29 10:30:40;;;;;;;6.30;4.05;;;8.50;72.00;;;;;;5005744;28;20030;-72
2023/12/29 10:33:06;;;;;;;5.32;4.03;;;8.50;72.10;;;;;;5023179;28;20037;-72
2023/12/29 10:35:35;;;;;;;6.03;3.63;;;8.50;71.90;;;;;;4991176;28;20035;-74
2023/12/29 10:38:12;;;;;;;5.72;4.22;;;8.50;72.00;;;;;;5005324;28;20180;-73
2023/12/29 10:40:39;;;;;;;5.10;3.90;;;8.50;71.90;;;;;;4991475;28;20042;-72
2023/12/29 10:43:07;;;;;;;5.43;4.43;;;8.50;71.90;;;;;;5006433;28;20421;-73
2023/12/29 10:45:34;;;;;;;6.82;3.88;;;8.50;71.90;;;;;;4991836;28;20030;-73
2023/12/29 10:48:00;;;;;;;6.57;4.07;;;8.50;71.70;;;;;;5023803;28;20106;-74
2023/12/29 10:50:27;;;;;;;7.75;4.05;;;8.50;71.70;;;;;;4993008;28;20044;-74
2023/12/29 10:53:13;;;;;;;6.28;4.25;;;8.50;71.50;;;;;;4991326;28;20034;-73
2023/12/29 10:55:39;;;;;;;6.15;3.92;;;8.50;71.50;;;;;;5007290;28;20465;-73
2023/12/29 10:58:06;;;;;;;5.75;4.28;;;8.50;71.50;;;;;;5024115;28;20030;-73
2023/12/29 11:00:35;;;;;;;5.25;4.32;;;8.50;71.40;;;;;;5022890;28;20040;-74
2023/12/29 11:03:01;;;;;;;6.18;3.92;;;8.60;71.40;;;;;;4991607;28;20041;-73
2023/12/29 11:05:27;;;;;;;8.02;4.43;;;8.60;71.30;;;;;;4991940;28;20045;-72
2023/12/29 11:07:54;;;;;;;6.43;4.32;;;8.60;71.40;;;;;;5024503;28;20030;-73
2023/12/29 11:10:21;;;;;;;6.45;4.07;;;8.60;71.40;;;;;;4991582;28;20042;-75
2023/12/29 11:12:49;;;;;;;5.13;3.92;;;8.60;71.30;;;;;;4990335;28;20088;-74
2023/12/29 11:15:16;;;;;;;6.95;4.50;;;8.60;71.40;;;;;;4989199;28;20046;-75
2023/12/29 11:17:49;;;;;;;6.30;4.18;;;8.60;71.30;;;;;;4991652;28;20563;-73
2023/12/29 11:20:19;;;;;;;6.97;4.47;;;8.60;71.70;;;;;;4991891;28;20046;-72
2023/12/29 11:22:47;;;;;;;7.18;3.90;;;8.60;72.00;;;;;;4988046;28;20136;-73
2023/12/29 11:25:15;;;;;;;5.45;3.78;;;8.70;72.40;;;;;;4989137;28;20031;-72
2023/12/29 11:27:42;;;;;;;7.30;4.55;;;8.70;72.60;;;;;;5022458;28;20035;-72
2023/12/29 11:30:09;;;;;;;8.18;4.28;;;8.70;72.90;;;;;;5021914;28;20038;-73
2023/12/29 11:32:57;;;;;;;5.90;3.70;;;8.70;73.40;;;;;;5020489;28;20132;-73
2023/12/29 11:35:42;;;;;;;6.65;3.80;;;8.70;73.40;;;;;;5006584;28;20041;-74
2023/12/29 11:38:41;;;;;;;6.93;3.97;;;8.70;73.60;;;;;;5007380;28;20575;-75
2023/12/29 11:41:13;;;;;;;7.32;4.30;;;8.80;73.90;;;;;;4988123;28;20560;-75
2023/12/29 11:43:39;;;;;;;6.22;3.80;;;8.80;74.90;;;;;;4991097;28;20076;-74
2023/12/29 11:46:05;;;;;;;6.68;4.03;;;8.80;74.60;;;;;;4990740;28;20066;-74
2023/12/29 11:48:57;;;;;;;5.53;3.53;;;8.80;74.70;;;;;;5021547;28;20233;-74
2023/12/29 11:51:40;;;;;;;4.88;3.58;;;8.90;75.00;;;;;;4990470;28;20149;-75
2023/12/29 11:54:08;;;;;;;4.82;3.35;;;8.90;75.30;;;;;;4989655;28;20132;-74
2023/12/29 11:56:35;;;;;;;4.90;3.20;;;8.90;75.50;;;;;;5019531;28;20161;-73
2023/12/29 11:59:22;;;;;;;4.55;3.22;;;8.90;75.70;;;;;;5023780;28;20030;-72
2023/12/29 12:01:54;;;;;;;3.88;3.03;;;9.00;75.70;;;;;;5022050;28;20084;-73
2023/12/29 12:04:42;;;;;;;5.28;3.92;;;9.00;76.00;;;;;;5017928;28;20117;-72
2023/12/29 12:07:15;;;;;;;3.72;2.80;;;9.00;76.30;;;;;;4994043;28;20425;-72
2023/12/29 12:09:41;;;;;;;4.80;3.38;;;9.00;76.80;;;;;;5022185;28;20061;-74
2023/12/29 12:12:07;;;;;;;4.63;3.10;;;9.00;76.90;;;;;;5020837;28;20049;-73
2023/12/29 12:14:53;;;;;;;4.03;3.35;;;9.00;77.20;;;;;;4991779;28;20030;-72
2023/12/29 12:17:29;;;;;;;;;;;9.00;77.30;;;;;;4990546;28;20092;-73
2023/12/29 12:20:11;;;;;;;3.90;2.80;;;9.00;77.30;;;;;;4991105;28;20419;-74
2023/12/29 12:22:38;;;;;;;4.13;3.13;;;9.00;77.50;;;;;;4991470;28;20490;-73
2023/12/29 12:25:04;;;;;;;4.13;3.42;;;9.10;77.30;;;;;;4990780;28;20177;-72
2023/12/29 12:27:31;;;;;;;5.70;3.42;;;9.10;77.90;;;;;;4988064;28;20034;-73
2023/12/29 12:29:59;;;;;;;3.60;2.80;;;9.00;77.60;;;;;;4986005;28;20161;-72
2023/12/29 12:32:29;;;;;;;3.47;2.70;;;9.10;77.50;;;;;;4990104;28;20037;-73
2023/12/29 12:34:56;;;;;;;4.05;3.15;;;9.10;77.70;;;;;;4989052;28;20038;-71
2023/12/29 12:37:23;;;;;;;4.20;3.17;;;9.10;77.90;;;;;;4987713;28;20038;-74
2023/12/29 12:39:50;;;;;;;4.00;2.88;;;9.10;77.70;;;;;;4991315;28;20038;-71
2023/12/29 12:42:17;;;;;;;4.53;3.00;;;9.10;77.50;;;;;;4988862;28;20323;-73
2023/12/29 12:44:54;;;;;;;4.95;2.90;;;9.10;78.10;;;;;;4990261;28;20405;-72
2023/12/29 12:47:28;;;;;;;4.25;3.05;;;9.20;78.50;;;;;;4989255;28;20540;-72
2023/12/29 12:49:54;;;;;;;3.95;2.85;;;9.20;78.60;;;;;;4989039;28;20041;-72
2023/12/29 12:52:20;;;;;;;4.38;3.05;;;9.20;78.80;;;;;;4989541;28;20088;-72
2023/12/29 12:54:48;;;;;;;4.13;2.38;;;9.20;78.80;;;;;;5021239;28;20176;-72
2023/12/29 12:57:19;;;;;;;4.03;2.75;;;9.20;79.00;;;;;;4990220;28;20034;-72
2023/12/29 12:59:45;;;;;;;4.75;2.90;;;9.20;79.10;;;;;;4989717;28;20077;-71